Airfield :
LOGIN :

Register | Disclaimer

   EN    FR    IT 

 










Legend :    VFR   Marginal VFR   IFR   Intensive IFR   Very Intensive IFR
Visi :
Ceiling :
>= 8 km
>= 3000ft
5 to 8 km
1000 to 3000 ft
1500m to 5 km
500 to 1000 ft
800 to 1500m
200 to 500 ft
< 800m
< 200 ft
Symbols :   Thunderstorms  Fog  Heavy snow  Heavy precipitations  Wind > 20 kt
SIGMETs :     Misc.  Thunderstorms  Icing  Turbulence  Mountain Waves  Volcanic Ashes






- Airport Elevation : 505 ft
- IATA code : SXB


LFST - Strasbourg

CURRENT METAR :
  • 160400Z AUTO 18007KT 9999 FEW036 BKN046 BKN054 11/10 Q1015 TEMPO 4000 BR

EXPIRED METARs :
  • 160330Z AUTO 18008KT 9999 SCT037 BKN046 BKN058 11/10 Q1015 TEMPO 4000 BR
  • 160300Z AUTO 19008KT 150V210 9999 BKN038 BKN046 OVC052 11/10 Q1015 TEMPO 4000 BR
  • 160230Z AUTO 19006KT 9999 FEW021 SCT041 BKN054 11/10 Q1015 TEMPO 4000 BR
  • 160200Z AUTO 19007KT 9999 -RA FEW033 BKN068 OVC078 11/10 Q1015 TEMPO 4000 BR
  • 160130Z AUTO 18008KT 9999 BKN038 BKN046 BKN060 12/10 Q1015 TEMPO 4000 BR

TAF TAF LFST
Valid from the 16 at 00:00 until the 17 at 00:00 UTC


152300Z 1600/1624 19007KT 9999 FEW050
PROB30
TEMPO 1602/1608 4000 BR
BECMG 1612/1615 CAVOK
PROB30
TEMPO 1622/1624 MIFG



MET'MAP, your aeronautical weather chart ! - Copyright ORBIFLY December 2007 - Disclaimer

ORBIFLY MET'MAP TEAM :

Programming & Development : Alexandra Zaïnal
Concept & Development : Baudouin d'Aumeries
Co-Development & Prog : Marc-Olivier Méhu
Technical & hardware support : Manuel Goepfert

Contact : metmap@orbifly.com




SOURCES & CREDITS :

   NOAA